Terminal Aerodrome Forecast
Issued by NWS New Orleans/Baton Rouge, LA

Home | Current Version | Previous Version | Text Only | Print | Product List | Glossary On
Versions: 1 2 3 4 5 6 7 8 9 10 11 12
000
FTUS44 KLIX 011100
TAFBTR
TAF
KBTR 011134Z 0112/0212 12007KT P6SM VCSH BKN050
     FM011500 17008KT P6SM VCSH OVC050
     FM020000 23009KT 5SM SHRA OVC025
     FM020900 33012KT P6SM BKN050=

USA.gov is the U.S. government's official web portal to all federal, state and local government web resources and services.